createdAt,value
2019-05-15T00:00:38.708Z,0.00
2019-05-15T00:01:41.135Z,0.00
2019-05-15T00:02:38.741Z,0.00
2019-05-15T00:03:39.108Z,0.00
2019-05-15T00:04:38.346Z,0.00
2019-05-15T00:05:39.010Z,0.00
2019-05-15T00:06:39.131Z,0.00
2019-05-15T00:07:39.222Z,0.00
2019-05-15T00:08:38.728Z,0.00
2019-05-15T00:09:41.634Z,0.00
2019-05-15T00:10:38.886Z,0.00
2019-05-15T00:11:38.992Z,0.00
2019-05-15T00:12:39.468Z,0.00
2019-05-15T00:13:38.975Z,0.00
2019-05-15T00:14:38.879Z,0.00
2019-05-15T00:15:39.804Z,0.00
2019-05-15T00:16:38.590Z,0.00
2019-05-15T00:17:39.306Z,0.00
2019-05-15T00:18:39.086Z,0.00
2019-05-15T00:19:38.911Z,0.00
2019-05-15T00:20:39.397Z,0.00
2019-05-15T00:21:38.299Z,0.00
2019-05-15T00:22:38.874Z,0.00
2019-05-15T00:23:38.784Z,0.00
2019-05-15T00:24:38.149Z,0.00
2019-05-15T00:25:39.469Z,0.00
2019-05-15T00:26:38.537Z,0.00
2019-05-15T00:27:38.621Z,0.00
2019-05-15T00:28:38.839Z,0.00
2019-05-15T00:29:38.379Z,0.00
2019-05-15T00:30:38.710Z,0.00
2019-05-15T00:31:38.807Z,0.00
2019-05-15T00:32:39.249Z,0.00
2019-05-15T00:33:39.470Z,0.00
2019-05-15T00:34:37.911Z,0.00
2019-05-15T00:35:39.409Z,0.00
2019-05-15T00:36:38.251Z,0.00
2019-05-15T00:37:38.696Z,0.00
2019-05-15T00:38:39.118Z,0.00
2019-05-15T00:39:39.087Z,0.00
2019-05-15T00:40:39.220Z,0.00
2019-05-15T00:41:50.881Z,0.00
2019-05-15T00:42:38.685Z,0.00
2019-05-15T00:43:38.639Z,0.00
2019-05-15T00:44:38.714Z,0.00
2019-05-15T00:45:38.543Z,0.00
2019-05-15T00:46:38.422Z,0.00
2019-05-15T00:47:39.372Z,0.00
2019-05-15T00:48:39.490Z,0.00
2019-05-15T00:49:38.240Z,0.00
2019-05-15T00:50:39.026Z,0.00
2019-05-15T00:51:39.029Z,0.00
2019-05-15T00:52:39.073Z,0.00
2019-05-15T00:53:38.946Z,0.00
2019-05-15T00:54:38.891Z,0.00
2019-05-15T00:55:37.973Z,0.00
2019-05-15T00:56:38.953Z,0.00
2019-05-15T00:57:39.357Z,0.00
2019-05-15T00:58:37.022Z,0.00
2019-05-15T00:59:38.871Z,0.00
2019-05-15T01:00:38.122Z,0.00
2019-05-15T01:01:38.187Z,0.00
2019-05-15T01:02:38.779Z,0.00
2019-05-15T01:03:38.725Z,0.00
2019-05-15T01:04:38.937Z,0.00
2019-05-15T01:05:38.795Z,0.00
2019-05-15T01:06:38.945Z,0.00
2019-05-15T01:07:38.966Z,0.00
2019-05-15T01:08:39.056Z,0.00
2019-05-15T01:09:38.459Z,0.00
2019-05-15T01:10:38.574Z,0.00
2019-05-15T01:11:38.227Z,0.00
2019-05-15T01:12:38.000Z,0.00
2019-05-15T01:13:38.811Z,0.00
2019-05-15T01:14:38.576Z,0.00
2019-05-15T01:15:38.723Z,0.00
2019-05-15T01:16:38.329Z,0.00
2019-05-15T01:17:38.979Z,0.00
2019-05-15T01:18:38.488Z,0.00
2019-05-15T01:19:37.969Z,0.00
2019-05-15T01:20:38.926Z,0.00
2019-05-15T01:21:38.498Z,0.00
2019-05-15T01:22:39.048Z,0.00
2019-05-15T01:23:38.827Z,0.00
2019-05-15T01:24:38.746Z,0.00
2019-05-15T01:25:38.647Z,0.00
2019-05-15T01:26:38.515Z,0.00
2019-05-15T01:27:38.647Z,0.00
2019-05-15T01:28:38.401Z,0.00
2019-05-15T01:29:44.568Z,0.00
2019-05-15T01:30:39.369Z,0.00
2019-05-15T01:31:38.029Z,0.00
2019-05-15T01:32:39.113Z,0.00
2019-05-15T01:33:38.815Z,0.00
2019-05-15T01:34:38.424Z,0.00
2019-05-15T01:35:38.344Z,0.00
2019-05-15T01:36:38.243Z,0.00
2019-05-15T01:37:38.785Z,0.00
2019-05-15T01:38:38.636Z,0.00
2019-05-15T01:39:38.529Z,0.00
2019-05-15T01:40:38.479Z,0.00
2019-05-15T01:41:38.459Z,0.00
2019-05-15T01:42:38.647Z,0.00
2019-05-15T01:43:38.104Z,0.00
2019-05-15T01:44:38.801Z,0.00
2019-05-15T01:45:39.059Z,0.00
2019-05-15T01:46:39.101Z,0.00
2019-05-15T01:47:38.579Z,0.00
2019-05-15T01:48:38.686Z,0.00
2019-05-15T01:49:38.393Z,0.00
2019-05-15T01:50:38.690Z,0.00
2019-05-15T01:51:38.362Z,0.00
2019-05-15T01:52:38.661Z,0.00
2019-05-15T01:53:38.342Z,0.00
2019-05-15T01:54:38.369Z,0.00
2019-05-15T01:55:36.397Z,0.00
2019-05-15T01:56:38.570Z,0.00
2019-05-15T01:57:38.430Z,0.00
2019-05-15T01:58:38.221Z,0.00
2019-05-15T01:59:36.347Z,0.00
2019-05-15T02:00:38.585Z,0.00
2019-05-15T02:01:38.927Z,0.00
2019-05-15T02:02:38.653Z,0.00
2019-05-15T02:03:38.324Z,0.00
2019-05-15T02:04:36.304Z,0.00
2019-05-15T02:05:36.283Z,0.00
2019-05-15T02:06:38.904Z,0.00
2019-05-15T02:07:38.745Z,0.00
2019-05-15T02:08:38.965Z,0.00
2019-05-15T02:09:38.425Z,0.00
2019-05-15T02:10:38.781Z,0.00
2019-05-15T02:11:38.264Z,0.00
2019-05-15T02:12:38.485Z,0.00
2019-05-15T02:13:36.212Z,0.00
2019-05-15T02:14:36.193Z,0.00
2019-05-15T02:15:36.180Z,0.00
2019-05-15T02:16:36.163Z,0.00
2019-05-15T02:17:36.149Z,0.00
2019-05-15T02:18:36.168Z,0.00
2019-05-15T02:19:36.138Z,0.00
2019-05-15T02:20:38.612Z,0.00
2019-05-15T02:21:37.991Z,0.00
2019-05-15T02:22:36.108Z,0.00
2019-05-15T02:23:36.091Z,0.00
2019-05-15T02:24:36.082Z,0.00
2019-05-15T02:25:36.081Z,0.00
2019-05-15T02:26:36.057Z,0.00
2019-05-15T02:27:38.950Z,0.00
2019-05-15T02:28:38.178Z,0.00
2019-05-15T02:29:37.821Z,0.00
2019-05-15T02:30:39.654Z,0.00
2019-05-15T02:31:38.879Z,0.00
2019-05-15T02:32:39.102Z,4.00
2019-05-15T02:33:36.007Z,4.00
2019-05-15T02:34:39.195Z,4.00
2019-05-15T02:35:38.882Z,4.00
2019-05-15T02:36:35.952Z,4.00
2019-05-15T02:37:35.944Z,4.00
2019-05-15T02:38:35.944Z,4.00
2019-05-15T02:39:38.617Z,8.00
2019-05-15T02:40:35.902Z,4.00
2019-05-15T02:41:39.406Z,8.00
2019-05-15T02:42:35.898Z,8.00
2019-05-15T02:43:38.728Z,8.00
2019-05-15T02:44:35.877Z,8.00
2019-05-15T02:45:37.847Z,12.00
2019-05-15T02:46:39.152Z,12.00
2019-05-15T02:47:35.836Z,16.00
2019-05-15T02:48:35.818Z,16.00
2019-05-15T02:49:38.968Z,20.00
2019-05-15T02:50:38.813Z,24.00
2019-05-15T02:51:35.788Z,24.00
2019-05-15T02:52:38.825Z,28.00
2019-05-15T02:53:39.209Z,32.00
2019-05-15T02:54:35.744Z,40.00
2019-05-15T02:55:35.737Z,44.00
2019-05-15T02:56:38.956Z,48.00
2019-05-15T02:57:38.971Z,52.00
2019-05-15T02:58:35.723Z,60.00
2019-05-15T02:59:35.711Z,64.00
2019-05-15T03:00:43.984Z,72.00
2019-05-15T03:01:39.944Z,80.00
2019-05-15T03:02:35.653Z,88.00
2019-05-15T03:03:38.383Z,96.00
2019-05-15T03:04:35.664Z,108.00
2019-05-15T03:05:35.633Z,116.00
2019-05-15T03:06:38.624Z,132.00
2019-05-15T03:07:35.600Z,144.00
2019-05-15T03:08:35.606Z,160.00
2019-05-15T03:09:35.609Z,172.00
2019-05-15T03:10:35.585Z,188.00
2019-05-15T03:11:35.565Z,204.00
2019-05-15T03:12:35.540Z,224.00
2019-05-15T03:13:35.566Z,240.00
2019-05-15T03:14:35.548Z,260.00
2019-05-15T03:15:35.525Z,284.00
2019-05-15T03:16:35.522Z,300.00
2019-05-15T03:17:35.507Z,324.00
2019-05-15T03:18:35.495Z,348.00
2019-05-15T03:19:35.496Z,372.00
2019-05-15T03:20:38.630Z,392.00
2019-05-15T03:21:38.643Z,416.00
2019-05-15T03:22:35.457Z,440.00
2019-05-15T03:23:35.443Z,464.00
2019-05-15T03:24:35.427Z,484.00
2019-05-15T03:25:35.405Z,512.00
2019-05-15T03:26:35.391Z,536.00
2019-05-15T03:27:35.400Z,560.00
2019-05-15T03:28:38.740Z,584.00
2019-05-15T03:29:35.379Z,608.00
2019-05-15T03:31:07.071Z,632.00
2019-05-15T03:31:56.766Z,656.00
2019-05-15T03:32:50.747Z,680.00
2019-05-15T03:33:43.899Z,704.00
2019-05-15T03:34:44.592Z,728.00
2019-05-15T03:35:41.847Z,756.00
2019-05-15T03:36:36.312Z,780.00
2019-05-15T03:37:35.313Z,804.00
2019-05-15T03:38:35.267Z,828.00
2019-05-15T03:39:35.278Z,852.00
2019-05-15T03:40:35.254Z,872.00
2019-05-15T03:41:35.263Z,896.00
2019-05-15T03:42:35.235Z,916.00
2019-05-15T03:43:35.228Z,944.00
2019-05-15T03:44:35.208Z,968.00
2019-05-15T03:45:35.195Z,992.00
2019-05-15T03:46:35.177Z,1016.00
2019-05-15T03:47:35.192Z,1052.00
2019-05-15T03:48:35.166Z,1084.00
2019-05-15T03:49:35.174Z,1116.00
2019-05-15T03:50:35.145Z,1156.00
2019-05-15T03:51:35.160Z,1188.00
2019-05-15T03:52:35.113Z,1224.00
2019-05-15T03:53:35.110Z,1268.00
2019-05-15T03:54:35.113Z,1324.00
2019-05-15T03:55:35.101Z,1384.00
2019-05-15T03:56:35.068Z,1440.00
2019-05-15T03:57:35.073Z,1500.00
2019-05-15T03:58:35.048Z,1560.00
2019-05-15T03:59:35.040Z,1624.00
2019-05-15T04:00:35.044Z,1688.00
2019-05-15T04:01:39.776Z,1748.00
2019-05-15T04:02:38.988Z,1820.00
2019-05-15T04:03:35.038Z,1884.00
2019-05-15T04:04:34.992Z,1956.00
2019-05-15T04:05:34.978Z,2032.00
2019-05-15T04:06:34.969Z,2116.00
2019-05-15T04:07:34.971Z,2212.00
2019-05-15T04:08:34.960Z,2300.00
2019-05-15T04:09:34.968Z,2376.00
2019-05-15T04:10:34.923Z,2436.00
2019-05-15T04:11:34.930Z,2492.00
2019-05-15T04:12:34.915Z,2524.00
2019-05-15T04:13:34.910Z,2552.00
2019-05-15T04:14:34.890Z,2564.00
2019-05-15T04:15:34.874Z,2568.00
2019-05-15T04:16:34.880Z,2576.00
2019-05-15T04:17:34.842Z,2576.00
2019-05-15T04:18:34.834Z,2592.00
2019-05-15T04:19:34.841Z,2628.00
2019-05-15T04:20:34.839Z,2668.00
2019-05-15T04:21:34.823Z,2716.00
2019-05-15T04:22:34.796Z,2764.00
2019-05-15T04:23:34.784Z,2812.00
2019-05-15T04:24:34.786Z,2868.00
2019-05-15T04:25:34.753Z,2892.00
2019-05-15T04:26:34.747Z,2848.00
2019-05-15T04:27:34.748Z,2728.00
2019-05-15T04:28:34.722Z,2604.00
2019-05-15T04:29:34.937Z,2472.00
2019-05-15T04:30:34.703Z,2376.00
2019-05-15T04:31:50.648Z,2340.00
2019-05-15T04:32:35.684Z,2332.00
2019-05-15T04:33:34.671Z,2368.00
2019-05-15T04:34:34.657Z,2392.00
2019-05-15T04:35:34.667Z,2452.00
2019-05-15T04:36:34.634Z,2524.00
2019-05-15T04:37:34.635Z,2632.00
2019-05-15T04:38:34.613Z,2812.00
2019-05-15T04:39:34.612Z,3016.00
2019-05-15T04:40:34.612Z,3204.00
2019-05-15T04:41:34.599Z,3340.00
2019-05-15T04:42:34.576Z,3468.00
2019-05-15T04:43:41.305Z,3592.00
2019-05-15T04:44:35.555Z,3732.00
2019-05-15T04:45:35.422Z,3924.00
2019-05-15T04:46:34.537Z,4212.00
2019-05-15T04:47:34.520Z,4540.00
2019-05-15T04:48:34.505Z,4856.00
2019-05-15T04:49:34.497Z,5108.00
2019-05-15T04:50:34.495Z,5300.00
2019-05-15T04:51:34.511Z,5496.00
2019-05-15T04:52:34.468Z,5632.00
2019-05-15T04:53:34.497Z,5752.00
2019-05-15T04:54:34.446Z,5832.00
2019-05-15T04:55:34.455Z,5936.00
2019-05-15T04:56:34.413Z,6064.00
2019-05-15T04:57:34.558Z,6132.00
2019-05-15T04:58:34.412Z,6176.00
2019-05-15T04:59:34.397Z,6268.00
2019-05-15T05:00:34.417Z,6396.00
2019-05-15T05:01:34.373Z,6544.00
2019-05-15T05:02:34.355Z,6668.00
2019-05-15T05:03:34.900Z,6788.00
2019-05-15T05:04:34.327Z,6772.00
2019-05-15T05:05:34.328Z,6664.00
2019-05-15T05:06:34.322Z,6536.00
2019-05-15T05:07:34.303Z,6516.00
2019-05-15T05:08:34.282Z,6588.00
2019-05-15T05:09:34.274Z,6732.00
2019-05-15T05:10:34.282Z,6928.00
2019-05-15T05:11:34.265Z,7068.00
2019-05-15T05:12:34.249Z,7232.00
2019-05-15T05:13:34.226Z,7356.00
2019-05-15T05:14:34.215Z,7448.00
2019-05-15T05:15:34.216Z,7628.00
2019-05-15T05:16:34.201Z,7840.00
2019-05-15T05:17:34.203Z,8160.00
2019-05-15T05:18:34.182Z,8524.00
2019-05-15T05:19:34.170Z,8820.00
2019-05-15T05:20:34.155Z,9020.00
2019-05-15T05:21:34.138Z,9188.00
2019-05-15T05:22:34.137Z,9328.00
2019-05-15T05:23:34.111Z,9416.00
2019-05-15T05:24:34.107Z,9488.00
2019-05-15T05:25:34.116Z,9476.00
2019-05-15T05:26:34.094Z,9348.00
2019-05-15T05:27:34.080Z,9180.00
2019-05-15T05:28:34.065Z,9092.00
2019-05-15T05:29:34.050Z,9068.00
2019-05-15T05:30:34.060Z,9076.00
2019-05-15T05:31:34.036Z,9072.00
2019-05-15T05:32:35.246Z,9036.00
2019-05-15T05:33:34.011Z,8976.00
2019-05-15T05:34:34.001Z,8912.00
2019-05-15T05:35:34.004Z,8868.00
2019-05-15T05:36:33.992Z,8828.00
2019-05-15T05:37:33.969Z,8816.00
2019-05-15T05:38:33.965Z,8852.00
2019-05-15T05:39:33.954Z,8900.00
2019-05-15T05:40:33.942Z,8924.00
2019-05-15T05:41:33.917Z,8976.00
2019-05-15T05:42:33.912Z,9080.00
2019-05-15T05:43:33.893Z,9204.00
2019-05-15T05:44:33.898Z,9336.00
2019-05-15T05:45:33.901Z,9456.00
2019-05-15T05:46:33.888Z,9524.00
2019-05-15T05:47:33.850Z,9576.00
2019-05-15T05:48:33.839Z,9612.00
2019-05-15T05:49:33.841Z,9680.00
2019-05-15T05:50:33.832Z,9772.00
2019-05-15T05:51:33.830Z,9876.00
2019-05-15T05:52:33.790Z,9984.00
2019-05-15T05:53:33.782Z,10124.00
2019-05-15T05:54:33.777Z,10276.00
2019-05-15T05:55:33.807Z,10440.00
2019-05-15T05:56:33.757Z,10620.00
2019-05-15T05:57:33.762Z,10792.00
2019-05-15T05:58:33.744Z,10904.00
2019-05-15T05:59:34.422Z,10928.00
2019-05-15T06:00:33.703Z,10840.00
2019-05-15T06:01:37.060Z,10716.00
2019-05-15T06:02:46.559Z,10580.00
2019-05-15T06:03:34.683Z,10444.00
2019-05-15T06:04:33.667Z,10312.00
2019-05-15T06:05:33.657Z,10188.00
2019-05-15T06:06:33.654Z,10072.00
2019-05-15T06:07:35.398Z,9996.00
2019-05-15T06:08:33.637Z,9972.00
2019-05-15T06:09:33.619Z,10048.00
2019-05-15T06:10:33.603Z,10172.00
2019-05-15T06:11:33.626Z,10404.00
2019-05-15T06:12:33.576Z,10768.00
2019-05-15T06:13:33.578Z,11236.00
2019-05-15T06:14:33.554Z,11752.00
2019-05-15T06:15:33.544Z,12252.00
2019-05-15T06:16:33.555Z,12756.00
2019-05-15T06:17:33.527Z,13248.00
2019-05-15T06:18:33.504Z,13708.00
2019-05-15T06:19:33.501Z,14080.00
2019-05-15T06:20:33.500Z,14360.00
2019-05-15T06:21:33.498Z,14616.00
2019-05-15T06:22:33.473Z,14836.00
2019-05-15T06:23:35.653Z,14964.00
2019-05-15T06:24:33.440Z,15068.00
2019-05-15T06:25:33.437Z,15168.00
2019-05-15T06:26:33.433Z,15284.00
2019-05-15T06:27:33.410Z,15480.00
2019-05-15T06:28:33.405Z,15788.00
2019-05-15T06:29:33.411Z,16384.00
2019-05-15T06:30:33.387Z,17088.00
2019-05-15T06:31:33.382Z,18176.00
2019-05-15T06:32:33.351Z,19232.00
2019-05-15T06:33:33.347Z,20864.00
2019-05-15T06:34:33.334Z,24192.00
2019-05-15T06:35:33.337Z,29152.00
2019-05-15T06:36:33.335Z,29376.00
2019-05-15T06:37:33.305Z,34656.00
2019-05-15T06:38:33.282Z,32960.00
2019-05-15T06:39:33.270Z,40128.00
2019-05-15T06:40:33.294Z,39328.00
2019-05-15T06:41:33.984Z,48192.00
2019-05-15T06:42:33.259Z,52032.00
2019-05-15T06:43:33.258Z,54880.00
2019-05-15T06:44:33.220Z,63296.00
2019-05-15T06:45:33.197Z,76064.00
2019-05-15T06:46:33.217Z,64160.00
2019-05-15T06:47:33.192Z,57952.00
2019-05-15T06:48:33.192Z,69376.00
2019-05-15T06:49:33.174Z,75488.00
2019-05-15T06:50:33.157Z,75328.00
2019-05-15T06:51:33.152Z,72768.00
2019-05-15T06:52:33.144Z,71104.00
2019-05-15T06:53:33.137Z,68544.00
2019-05-15T06:54:33.121Z,70016.00
2019-05-15T06:55:33.105Z,73664.00
2019-05-15T06:56:33.102Z,72448.00
2019-05-15T06:57:33.085Z,71360.00
2019-05-15T06:58:33.073Z,69056.00
2019-05-15T06:59:33.075Z,70784.00
2019-05-15T07:00:33.064Z,72352.00
2019-05-15T07:01:33.064Z,70816.00
2019-05-15T07:02:33.024Z,71296.00
2019-05-15T07:03:33.037Z,72704.00
2019-05-15T07:04:33.007Z,71584.00
2019-05-15T07:05:32.990Z,71008.00
2019-05-15T07:06:33.003Z,64576.00
2019-05-15T07:07:32.981Z,41568.00
2019-05-15T07:08:32.955Z,41408.00
2019-05-15T07:09:32.942Z,47552.00
2019-05-15T07:10:32.957Z,47040.00
2019-05-15T07:11:32.938Z,19424.00
2019-05-15T07:12:32.921Z,18112.00
2019-05-15T07:13:32.907Z,17408.00
2019-05-15T07:14:32.897Z,20512.00
2019-05-15T07:15:32.913Z,20512.00
2019-05-15T07:16:32.877Z,26112.00
2019-05-15T07:17:32.866Z,28608.00
2019-05-15T07:18:32.855Z,32384.00
2019-05-15T07:19:32.841Z,23168.00
2019-05-15T07:20:32.841Z,21216.00
2019-05-15T07:21:32.824Z,20640.00
2019-05-15T07:22:32.825Z,23584.00
2019-05-15T07:23:32.796Z,21920.00
2019-05-15T07:24:32.787Z,21760.00
2019-05-15T07:25:32.780Z,21280.00
2019-05-15T07:26:32.763Z,22560.00
2019-05-15T07:27:32.779Z,27904.00
2019-05-15T07:28:32.735Z,26848.00
2019-05-15T07:29:32.722Z,25792.00
2019-05-15T07:30:32.712Z,37600.00
2019-05-15T07:31:32.708Z,36992.00
2019-05-15T07:32:32.717Z,43296.00
2019-05-15T07:33:39.431Z,31168.00
2019-05-15T07:34:33.697Z,27392.00
2019-05-15T07:35:32.700Z,28288.00
2019-05-15T07:36:32.653Z,26400.00
2019-05-15T07:37:32.651Z,29152.00
2019-05-15T07:38:32.640Z,45760.00
2019-05-15T07:39:32.631Z,77440.00
2019-05-15T07:40:32.613Z,46752.00
2019-05-15T07:41:32.606Z,78464.00
2019-05-15T07:42:32.599Z,78240.00
2019-05-15T07:43:32.577Z,64064.00
2019-05-15T07:44:32.577Z,47872.00
2019-05-15T07:45:32.563Z,29760.00
2019-05-15T07:46:32.550Z,27904.00
2019-05-15T07:47:32.554Z,30368.00
2019-05-15T07:48:32.533Z,34656.00
2019-05-15T07:49:32.512Z,40864.00
2019-05-15T07:50:32.508Z,35808.00
2019-05-15T07:51:32.504Z,32960.00
2019-05-15T07:52:32.502Z,34752.00
2019-05-15T07:53:32.472Z,38688.00
2019-05-15T07:54:32.447Z,42272.00
2019-05-15T07:55:32.449Z,45312.00
2019-05-15T07:56:32.441Z,45248.00
2019-05-15T07:57:32.438Z,60864.00
2019-05-15T07:58:32.422Z,56608.00
2019-05-15T07:59:32.415Z,63584.00
2019-05-15T08:00:32.388Z,66848.00
2019-05-15T08:01:32.392Z,59136.00
2019-05-15T08:02:32.379Z,84672.00
2019-05-15T08:03:32.361Z,70240.00
2019-05-15T08:04:33.008Z,57664.00
2019-05-15T08:05:32.349Z,61312.00
2019-05-15T08:06:32.353Z,54304.00
2019-05-15T08:07:32.338Z,49312.00
2019-05-15T08:08:32.305Z,52544.00
2019-05-15T08:09:32.292Z,61344.00
2019-05-15T08:10:32.292Z,61664.00
2019-05-15T08:11:32.279Z,50464.00
2019-05-15T08:12:32.274Z,44960.00
2019-05-15T08:13:32.244Z,44320.00
2019-05-15T08:14:32.261Z,45792.00
2019-05-15T08:15:32.224Z,44992.00
2019-05-15T08:16:32.221Z,49888.00
2019-05-15T08:17:32.232Z,58752.00
2019-05-15T08:18:32.205Z,54144.00
2019-05-15T08:19:32.190Z,55328.00
2019-05-15T08:20:32.177Z,66720.00
2019-05-15T08:21:32.158Z,66880.00
2019-05-15T08:22:32.156Z,67840.00
2019-05-15T08:23:32.148Z,78368.00
2019-05-15T08:24:32.142Z,66592.00
2019-05-15T08:25:35.329Z,56096.00
2019-05-15T08:26:32.108Z,47616.00
2019-05-15T08:27:32.939Z,46848.00
2019-05-15T08:28:32.095Z,61056.00
2019-05-15T08:29:32.085Z,56064.00
2019-05-15T08:30:32.080Z,45152.00
2019-05-15T08:31:32.063Z,32992.00
2019-05-15T08:32:32.070Z,29216.00
2019-05-15T08:33:32.033Z,28288.00
2019-05-15T08:34:32.018Z,29472.00
2019-05-15T08:35:32.010Z,32064.00
2019-05-15T08:36:32.013Z,33376.00
2019-05-15T08:37:32.005Z,36928.00
2019-05-15T08:38:31.996Z,48704.00
2019-05-15T08:39:31.973Z,53376.00
2019-05-15T08:40:31.960Z,42816.00
2019-05-15T08:41:31.950Z,38656.00
2019-05-15T08:42:32.364Z,40352.00
2019-05-15T08:43:31.931Z,42496.00
2019-05-15T08:44:31.914Z,61120.00
2019-05-15T08:45:31.903Z,50304.00
2019-05-15T08:46:31.883Z,44736.00
2019-05-15T08:47:31.897Z,48384.00
2019-05-15T08:48:32.893Z,52512.00
2019-05-15T08:49:31.867Z,53312.00
2019-05-15T08:50:31.882Z,66336.00
2019-05-15T08:51:31.851Z,65312.00
2019-05-15T08:52:31.838Z,54496.00
2019-05-15T08:53:31.814Z,39840.00
2019-05-15T08:54:31.799Z,38208.00
2019-05-15T08:55:31.790Z,36416.00
2019-05-15T08:56:31.785Z,35360.00
2019-05-15T08:57:31.790Z,36192.00
2019-05-15T08:58:31.748Z,38368.00
2019-05-15T08:59:31.739Z,43008.00
2019-05-15T09:00:31.738Z,45216.00
2019-05-15T09:01:31.729Z,47616.00
2019-05-15T09:02:31.751Z,48128.00
2019-05-15T09:03:31.712Z,45568.00
2019-05-15T09:04:34.988Z,46784.00
2019-05-15T09:05:31.680Z,47552.00
2019-05-15T09:06:31.674Z,52096.00
2019-05-15T09:07:31.729Z,59168.00
2019-05-15T09:08:31.743Z,58464.00
2019-05-15T09:09:31.648Z,49024.00
2019-05-15T09:10:31.634Z,62784.00
2019-05-15T09:11:31.626Z,48928.00
2019-05-15T09:12:31.610Z,58336.00
2019-05-15T09:13:31.612Z,64992.00
2019-05-15T09:14:31.600Z,71488.00
2019-05-15T09:15:31.582Z,122240.00
2019-05-15T09:16:31.559Z,118688.00
2019-05-15T09:17:31.558Z,60352.00
2019-05-15T09:18:31.558Z,52384.00
2019-05-15T09:19:31.536Z,49760.00
2019-05-15T09:20:31.529Z,67392.00
2019-05-15T09:21:31.518Z,97312.00
2019-05-15T09:22:31.508Z,89248.00
2019-05-15T09:23:31.533Z,65600.00
2019-05-15T09:24:31.479Z,74816.00
2019-05-15T09:25:31.464Z,124640.00
2019-05-15T09:26:31.457Z,126144.00
2019-05-15T09:27:31.440Z,97408.00
2019-05-15T09:28:31.464Z,123840.00
2019-05-15T09:29:31.432Z,92992.00
2019-05-15T09:30:31.422Z,44032.00
2019-05-15T09:31:31.419Z,42848.00
2019-05-15T09:32:31.456Z,85152.00
2019-05-15T09:33:31.401Z,94016.00
2019-05-15T09:34:46.667Z,109600.00
2019-05-15T09:35:32.377Z,116640.00
2019-05-15T09:36:31.349Z,69024.00
2019-05-15T09:37:33.687Z,43136.00
2019-05-15T09:38:31.339Z,33856.00
2019-05-15T09:39:31.313Z,33888.00
2019-05-15T09:40:42.424Z,37088.00
2019-05-15T09:41:32.294Z,40512.00
2019-05-15T09:42:31.291Z,49600.00
2019-05-15T09:43:31.283Z,53984.00
2019-05-15T09:44:31.271Z,38208.00
2019-05-15T09:45:31.251Z,33664.00
2019-05-15T09:46:31.250Z,30336.00
2019-05-15T09:47:31.271Z,31936.00
2019-05-15T09:48:31.231Z,35648.00
2019-05-15T09:49:31.213Z,41344.00
2019-05-15T09:50:31.203Z,49888.00
2019-05-15T09:51:31.186Z,43456.00
2019-05-15T09:52:31.195Z,38208.00
2019-05-15T09:53:31.186Z,35936.00
2019-05-15T09:54:31.165Z,36800.00
2019-05-15T09:55:31.154Z,37952.00
2019-05-15T09:56:31.136Z,48704.00
2019-05-15T09:57:31.130Z,42048.00
2019-05-15T09:58:31.129Z,40864.00
2019-05-15T09:59:31.102Z,41024.00
2019-05-15T10:00:31.131Z,40160.00
2019-05-15T10:01:31.093Z,38720.00
2019-05-15T10:02:31.068Z,37856.00
2019-05-15T10:03:31.069Z,35968.00
2019-05-15T10:04:31.058Z,35104.00
2019-05-15T10:05:31.054Z,34144.00
2019-05-15T10:06:31.036Z,33440.00
2019-05-15T10:07:31.022Z,32384.00
2019-05-15T10:08:31.049Z,28288.00
2019-05-15T10:09:30.992Z,26912.00
2019-05-15T10:10:30.982Z,27392.00
2019-05-15T10:11:30.978Z,27456.00
2019-05-15T10:12:34.821Z,28032.00
2019-05-15T10:13:30.971Z,29792.00
2019-05-15T10:14:30.954Z,41280.00
2019-05-15T10:15:30.936Z,38080.00
2019-05-15T10:16:30.924Z,37120.00
2019-05-15T10:17:30.909Z,40288.00
2019-05-15T10:18:30.922Z,40352.00
2019-05-15T10:19:30.897Z,37920.00
2019-05-15T10:20:30.881Z,35552.00
2019-05-15T10:21:32.584Z,33280.00
2019-05-15T10:22:30.856Z,31552.00
2019-05-15T10:23:30.850Z,30464.00
2019-05-15T10:24:30.842Z,30336.00
2019-05-15T10:25:30.823Z,30784.00
2019-05-15T10:26:30.816Z,31168.00
2019-05-15T10:27:30.800Z,32000.00
2019-05-15T10:28:30.803Z,34496.00
2019-05-15T10:29:30.774Z,36096.00
2019-05-15T10:30:30.761Z,38816.00
2019-05-15T10:31:30.768Z,37792.00
2019-05-15T10:32:30.752Z,36512.00
2019-05-15T10:33:30.733Z,35136.00
2019-05-15T10:34:30.731Z,34720.00
2019-05-15T10:35:31.807Z,33056.00
2019-05-15T10:36:30.702Z,31680.00
2019-05-15T10:37:30.687Z,29856.00
2019-05-15T10:38:30.712Z,27584.00
2019-05-15T10:39:30.679Z,26496.00
2019-05-15T10:40:30.648Z,25568.00
2019-05-15T10:41:30.644Z,24416.00
2019-05-15T10:42:30.633Z,23392.00
2019-05-15T10:43:30.621Z,22496.00
2019-05-15T10:44:30.627Z,21728.00
2019-05-15T10:45:30.609Z,20864.00
2019-05-15T10:46:30.587Z,20096.00
2019-05-15T10:47:30.581Z,19424.00
2019-05-15T10:48:30.556Z,18912.00
2019-05-15T10:49:30.559Z,18560.00
2019-05-15T10:50:30.544Z,18176.00
2019-05-15T10:51:30.548Z,17920.00
2019-05-15T10:52:30.513Z,18016.00
2019-05-15T10:53:30.504Z,18464.00
2019-05-15T10:54:30.527Z,19584.00
2019-05-15T10:55:30.489Z,21216.00
2019-05-15T10:56:30.489Z,23168.00
2019-05-15T10:57:30.473Z,24864.00
2019-05-15T10:58:30.456Z,25824.00
2019-05-15T10:59:30.459Z,25696.00
2019-05-15T11:00:30.429Z,25312.00
2019-05-15T11:01:30.416Z,24800.00
2019-05-15T11:02:30.416Z,23904.00
2019-05-15T11:03:30.396Z,22752.00
2019-05-15T11:04:30.408Z,21760.00
2019-05-15T11:05:40.648Z,20928.00
2019-05-15T11:06:31.365Z,20096.00
2019-05-15T11:07:30.356Z,19072.00
2019-05-15T11:08:30.351Z,17952.00
2019-05-15T11:09:30.359Z,17088.00
2019-05-15T11:10:30.324Z,16400.00
2019-05-15T11:11:30.337Z,16448.00
2019-05-15T11:12:30.294Z,17280.00
2019-05-15T11:13:30.282Z,18208.00
2019-05-15T11:14:30.303Z,19104.00
2019-05-15T11:15:30.263Z,19616.00
2019-05-15T11:16:30.265Z,19552.00
2019-05-15T11:17:31.536Z,18816.00
2019-05-15T11:18:30.738Z,17632.00
2019-05-15T11:19:35.916Z,16476.00
2019-05-15T11:20:31.211Z,15764.00
2019-05-15T11:21:30.198Z,15292.00
2019-05-15T11:22:30.205Z,14892.00
2019-05-15T11:23:30.183Z,14472.00
2019-05-15T11:24:32.397Z,14004.00
2019-05-15T11:25:30.245Z,13584.00
2019-05-15T11:26:33.469Z,13388.00
2019-05-15T11:27:31.323Z,13444.00
2019-05-15T11:28:32.327Z,13748.00
2019-05-15T11:29:30.129Z,14252.00
2019-05-15T11:30:30.119Z,14864.00
2019-05-15T11:31:30.093Z,15500.00
2019-05-15T11:32:30.077Z,16164.00
2019-05-15T11:33:30.068Z,16896.00
2019-05-15T11:34:30.073Z,17440.00
2019-05-15T11:35:30.050Z,18112.00
2019-05-15T11:36:30.041Z,18720.00
2019-05-15T11:37:30.029Z,19200.00
2019-05-15T11:38:30.008Z,19904.00
2019-05-15T11:39:30.040Z,20864.00
2019-05-15T11:40:30.015Z,22240.00
2019-05-15T11:41:30.011Z,24320.00
2019-05-15T11:42:29.968Z,27328.00
2019-05-15T11:43:29.960Z,31776.00
2019-05-15T11:44:30.551Z,32544.00
2019-05-15T11:45:29.942Z,35008.00
2019-05-15T11:46:29.954Z,41056.00
2019-05-15T11:47:29.912Z,38368.00
2019-05-15T11:48:30.233Z,44672.00
2019-05-15T11:49:29.945Z,38144.00
2019-05-15T11:50:29.892Z,33792.00
2019-05-15T11:51:29.870Z,33344.00
2019-05-15T11:52:29.867Z,34528.00
2019-05-15T11:53:29.849Z,44800.00
2019-05-15T11:54:29.838Z,51360.00
2019-05-15T11:55:29.839Z,59616.00
2019-05-15T11:56:29.852Z,63392.00
2019-05-15T11:57:42.591Z,46880.00
2019-05-15T11:58:30.790Z,51488.00
2019-05-15T11:59:30.217Z,52960.00
2019-05-15T12:00:30.433Z,40864.00
2019-05-15T12:01:29.762Z,35136.00
2019-05-15T12:02:29.765Z,31360.00
2019-05-15T12:03:29.742Z,29056.00
2019-05-15T12:04:33.768Z,27200.00
2019-05-15T12:05:29.726Z,26208.00
2019-05-15T12:06:29.694Z,25728.00
2019-05-15T12:07:29.690Z,25440.00
2019-05-15T12:08:29.683Z,24864.00
2019-05-15T12:09:29.690Z,24128.00
2019-05-15T12:10:29.670Z,23808.00
2019-05-15T12:11:36.628Z,24096.00